Time;durP1;ratioP1;P1;durP2;ratioP2;P2;SDS_P1;SDS_P2;PMS_P1;PMS_P2;Temp;Humidity;BMP_temperature;BMP_pressure;BME280_temperature;BME280_humidity;BME280_pressure;Samples;Min_cycle;Max_cycle;Signal;HPM_P1;HPM_P2
2022/07/10 00:00:35;;;;;;;2.10;1.90;;;;;;;17.40;99.18;100172.59;5050844;28;20123;-80
2022/07/10 00:03:01;;;;;;;2.53;1.90;;;;;;;17.45;98.71;100171.16;5048273;28;20102;-80
2022/07/10 00:05:27;;;;;;;2.75;2.03;;;;;;;17.42;98.47;100161.69;5049739;28;20037;-80
2022/07/10 00:07:53;;;;;;;3.05;1.80;;;;;;;17.31;98.73;100157.88;5046600;28;20517;-80
2022/07/10 00:10:19;;;;;;;2.55;1.67;;;;;;;17.32;98.26;100148.97;5050639;28;20029;-80
2022/07/10 00:12:45;;;;;;;2.00;1.80;;;;;;;17.29;98.51;100149.94;5049356;28;20394;-80
2022/07/10 00:15:11;;;;;;;2.38;1.60;;;;;;;17.22;98.68;100147.53;5049837;28;20044;-80
2022/07/10 00:17:39;;;;;;;2.15;1.60;;;;;;;17.20;98.17;100144.41;5048823;28;20544;-80
2022/07/10 00:20:06;;;;;;;2.95;2.08;;;;;;;17.22;97.45;100127.91;5049226;28;20439;-81
2022/07/10 00:22:34;;;;;;;2.58;1.80;;;;;;;17.16;97.39;100141.03;5048683;28;20036;-81
2022/07/10 00:25:01;;;;;;;2.38;1.83;;;;;;;17.16;97.75;100129.81;5047890;28;20033;-81
2022/07/10 00:27:27;;;;;;;2.25;1.80;;;;;;;17.11;97.32;100136.06;5048773;28;20041;-79
2022/07/10 00:29:52;;;;;;;2.28;1.70;;;;;;;17.10;96.98;100142.94;5046227;28;20079;-79
2022/07/10 00:32:18;;;;;;;3.47;1.67;;;;;;;17.13;96.75;100142.00;5048924;28;22099;-79
2022/07/10 00:34:43;;;;;;;2.72;1.70;;;;;;;17.11;96.93;100150.09;5048787;28;20033;-77
2022/07/10 00:37:09;;;;;;;2.10;1.83;;;;;;;17.05;97.19;100135.97;5047315;28;20048;-77
2022/07/10 00:39:34;;;;;;;2.28;1.67;;;;;;;17.01;97.33;100129.00;5049911;28;20120;-77
2022/07/10 00:42:11;;;;;;;2.83;1.70;;;;;;;17.03;97.17;100132.09;5052055;28;20383;-77
2022/07/10 00:44:38;;;;;;;1.92;1.55;;;;;;;17.09;96.50;100130.97;5050859;28;20036;-77
2022/07/10 00:47:07;;;;;;;2.00;1.58;;;;;;;17.03;95.64;100132.09;5049826;28;20440;-77
2022/07/10 00:49:33;;;;;;;2.58;1.70;;;;;;;17.06;95.23;100133.94;5050928;28;20029;-77
2022/07/10 00:52:01;;;;;;;2.17;1.67;;;;;;;17.03;95.29;100126.47;5051375;28;20036;-77
2022/07/10 00:54:28;;;;;;;1.67;1.50;;;;;;;16.99;94.97;100129.47;5050567;28;20471;-77
2022/07/10 00:56:54;;;;;;;1.83;1.70;;;;;;;17.07;94.74;100132.69;5048779;28;20397;-78
2022/07/10 00:59:21;;;;;;;2.08;1.80;;;;;;;17.04;94.52;100131.63;5051048;28;20033;-78
2022/07/10 01:01:48;;;;;;;1.80;1.60;;;;;;;17.04;94.73;100136.44;5307900;22;20057;-88
2022/07/10 01:04:13;;;;;;;1.60;1.50;;;;;;;17.02;94.83;100136.16;5014125;28;20402;-88
2022/07/10 01:06:39;;;;;;;1.73;1.30;;;;;;;17.06;94.59;100125.53;5030833;28;20033;-88
2022/07/10 01:09:04;;;;;;;2.00;1.60;;;;;;;17.06;94.40;100133.94;5031188;28;20387;-88
2022/07/10 01:11:33;;;;;;;1.88;1.75;;;;;;;17.04;94.81;100122.44;5029365;28;20037;-87
2022/07/10 01:13:58;;;;;;;2.35;1.63;;;;;;;17.10;94.53;100126.13;5030520;28;20038;-88
2022/07/10 01:16:24;;;;;;;2.63;1.90;;;;;;;17.04;94.51;100116.81;5029510;28;20079;-88
2022/07/10 01:18:49;;;;;;;1.77;1.52;;;;;;;17.10;94.63;100120.53;5012553;28;20494;-79
2022/07/10 01:21:24;;;;;;;1.58;1.48;;;;;;;17.06;94.43;100134.72;5028737;28;20037;-88
2022/07/10 01:23:49;;;;;;;2.35;1.63;;;;;;;17.17;93.69;100125.75;5031497;28;20108;-88
2022/07/10 01:26:15;;;;;;;1.90;1.60;;;;;;;17.21;93.03;100115.91;5031114;28;20093;-87
2022/07/10 01:28:41;;;;;;;2.00;1.52;;;;;;;17.25;93.66;100122.09;5012555;28;20050;-88
2022/07/10 01:31:06;;;;;;;1.50;1.40;;;;;;;17.25;93.12;100110.88;5029835;28;20034;-88
2022/07/10 01:33:32;;;;;;;2.67;1.67;;;;;;;17.21;93.96;100115.13;5029318;28;20029;-88
2022/07/10 01:35:58;;;;;;;2.85;1.63;;;;;;;17.20;93.60;100111.56;5031458;28;20397;-87
2022/07/10 01:38:23;;;;;;;2.00;1.60;;;;;;;17.09;93.41;100114.16;5030108;28;20442;-78
2022/07/10 01:40:49;;;;;;;2.10;1.60;;;;;;;16.98;93.80;100101.94;5029926;28;20037;-87
2022/07/10 01:43:14;;;;;;;2.30;1.52;;;;;;;17.00;93.92;100093.81;5032573;28;20044;-87
2022/07/10 01:45:40;;;;;;;1.77;1.60;;;;;;;17.02;94.45;100108.13;5028231;28;20025;-87
2022/07/10 01:48:05;;;;;;;3.35;1.73;;;;;;;17.06;93.75;100100.31;5030663;28;20371;-87
2022/07/10 01:50:31;;;;;;;1.65;1.50;;;;;;;17.06;93.71;100103.91;5042306;28;20021;-88
2022/07/10 01:52:57;;;;;;;2.17;1.90;;;;;;;17.02;94.14;100096.94;5041741;28;20529;-87
2022/07/10 01:55:22;;;;;;;2.65;1.83;;;;;;;17.07;92.99;100093.44;5053983;28;20041;-87
2022/07/10 01:57:48;;;;;;;2.10;1.55;;;;;;;17.04;94.23;100102.81;5026930;28;20051;-79
2022/07/10 02:00:14;;;;;;;1.85;1.60;;;;;;;17.01;93.82;100086.97;5029104;28;20103;-87
2022/07/10 02:02:39;;;;;;;2.28;1.70;;;;;;;16.91;94.18;100091.88;5029825;28;20577;-87
2022/07/10 02:05:05;;;;;;;3.10;1.80;;;;;;;16.90;95.06;100089.56;5030005;28;20035;-88
2022/07/10 02:07:31;;;;;;;2.80;1.70;;;;;;;16.83;95.22;100084.31;5030369;28;20037;-87
2022/07/10 02:09:57;;;;;;;1.70;1.60;;;;;;;16.73;95.85;100086.41;5025640;28;20065;-86
2022/07/10 02:12:22;;;;;;;1.65;1.50;;;;;;;16.63;96.37;100082.13;5030805;28;20044;-87
2022/07/10 02:14:48;;;;;;;2.10;1.70;;;;;;;16.59;97.07;100076.69;5023743;28;20025;-88
2022/07/10 02:17:15;;;;;;;3.45;1.75;;;;;;;16.58;96.65;100072.34;5029854;28;20116;-87
2022/07/10 02:19:41;;;;;;;2.72;1.90;;;;;;;16.55;96.79;100073.28;4994124;28;20044;-78
2022/07/10 02:22:07;;;;;;;2.55;1.70;;;;;;;16.49;97.72;100069.59;5030354;28;20116;-79
2022/07/10 02:24:32;;;;;;;1.83;1.60;;;;;;;16.37;98.17;100078.22;5030173;28;20032;-79
2022/07/10 02:26:58;;;;;;;4.40;1.83;;;;;;;16.27;99.57;100077.50;5030425;28;20026;-79
2022/07/10 02:29:24;;;;;;;2.00;1.80;;;;;;;16.31;98.52;100078.88;5029064;28;20107;-79
2022/07/10 02:31:49;;;;;;;2.15;1.45;;;;;;;16.25;99.35;100083.59;5028838;28;20053;-79
2022/07/10 02:34:15;;;;;;;2.00;1.80;;;;;;;16.23;99.04;100074.09;5029441;28;20482;-79
2022/07/10 02:36:41;;;;;;;2.55;1.88;;;;;;;16.18;100.00;100085.94;5029935;28;20037;-87
2022/07/10 02:39:07;;;;;;;2.53;1.90;;;;;;;16.10;100.00;100090.31;5011349;28;20033;-88
2022/07/10 02:41:33;;;;;;;2.50;1.80;;;;;;;16.13;100.00;100100.59;5010425;28;20048;-88
2022/07/10 02:43:59;;;;;;;2.42;2.00;;;;;;;16.08;100.00;100092.84;5023029;28;20073;-88
2022/07/10 02:46:25;;;;;;;1.98;1.70;;;;;;;16.06;100.00;100092.53;5029910;28;20471;-88
2022/07/10 02:48:50;;;;;;;2.00;1.70;;;;;;;16.05;100.00;100093.78;5011091;28;20040;-87
2022/07/10 02:51:15;;;;;;;2.13;1.77;;;;;;;16.10;100.00;100090.31;5031008;28;20542;-87
2022/07/10 02:53:41;;;;;;;2.83;1.83;;;;;;;16.04;100.00;100083.84;5028818;28;20031;-88
2022/07/10 02:56:07;;;;;;;2.33;1.83;;;;;;;16.06;100.00;100084.13;5012228;28;20064;-79
2022/07/10 02:58:33;;;;;;;2.45;1.90;;;;;;;16.03;100.00;100076.69;5029520;28;20099;-79
2022/07/10 03:00:58;;;;;;;2.67;1.90;;;;;;;15.96;100.00;100071.44;5011489;28;20037;-79
2022/07/10 03:03:24;;;;;;;1.80;1.70;;;;;;;16.01;100.00;100065.22;5029103;28;20046;-79
2022/07/10 03:05:50;;;;;;;2.10;1.90;;;;;;;15.83;100.00;100064.03;5012020;28;20029;-78
2022/07/10 03:08:15;;;;;;;2.47;1.98;;;;;;;15.74;100.00;100058.47;5011620;28;20029;-78
2022/07/10 03:10:41;;;;;;;2.95;1.90;;;;;;;15.78;100.00;100053.47;5029310;28;20045;-78
2022/07/10 03:13:06;;;;;;;2.78;1.95;;;;;;;15.87;100.00;100061.06;5011673;28;20065;-87
2022/07/10 03:15:32;;;;;;;2.88;1.90;;;;;;;15.86;100.00;100065.09;5027456;28;20083;-88
2022/07/10 03:17:58;;;;;;;2.60;2.00;;;;;;;15.78;100.00;100061.09;5027296;28;20037;-87
2022/07/10 03:20:24;;;;;;;2.88;2.10;;;;;;;15.72;100.00;100054.59;5028375;28;20087;-88
2022/07/10 03:22:49;;;;;;;2.28;1.90;;;;;;;15.73;100.00;100056.91;5028944;28;20487;-87
2022/07/10 03:25:15;;;;;;;3.00;2.00;;;;;;;15.77;100.00;100053.97;5011094;28;20548;-88
2022/07/10 03:27:40;;;;;;;2.20;2.00;;;;;;;15.74;100.00;100052.09;5029466;28;20124;-88
2022/07/10 03:30:06;;;;;;;2.90;1.88;;;;;;;15.68;100.00;100054.00;5028635;28;20414;-88
2022/07/10 03:32:33;;;;;;;2.20;1.88;;;;;;;15.72;100.00;100049.78;5030185;28;20187;-79
2022/07/10 03:34:59;;;;;;;2.17;1.80;;;;;;;15.72;100.00;100047.00;5029109;28;20033;-88
2022/07/10 03:37:25;;;;;;;3.65;2.30;;;;;;;15.77;100.00;100039.97;5010821;28;20465;-88
2022/07/10 03:39:51;;;;;;;2.42;1.90;;;;;;;15.67;100.00;100041.25;5011774;28;20029;-88
2022/07/10 03:45:00;;;;;;;2.20;1.90;;;;;;;15.61;100.00;100051.53;5029070;28;20045;-87
2022/07/10 03:47:26;;;;;;;3.80;2.10;;;;;;;15.62;100.00;100048.25;5028873;28;20038;-88
2022/07/10 03:49:51;;;;;;;3.17;2.10;;;;;;;15.63;100.00;100041.41;5029660;28;20069;-86
2022/07/10 03:52:17;;;;;;;2.60;2.25;;;;;;;15.65;100.00;100036.13;5028932;28;20033;-84
2022/07/10 03:54:42;;;;;;;3.45;2.00;;;;;;;15.65;100.00;100050.09;5028250;28;20387;-86
2022/07/10 03:59:52;;;;;;;2.47;2.13;;;;;;;15.69;100.00;100045.13;5027780;28;20041;-86
2022/07/10 04:02:18;;;;;;;2.55;2.00;;;;;;;15.77;100.00;100054.72;5029114;28;20050;-86
2022/07/10 04:04:43;;;;;;;2.58;2.00;;;;;;;15.88;100.00;100057.03;5028883;28;20037;-87
2022/07/10 04:07:10;;;;;;;2.38;2.03;;;;;;;15.93;100.00;100052.81;5028873;28;20038;-87
2022/07/10 04:09:36;;;;;;;2.80;1.90;;;;;;;16.02;100.00;100053.53;5028939;28;20126;-87
2022/07/10 04:12:01;;;;;;;2.25;1.80;;;;;;;16.03;100.00;100046.69;5026197;28;20086;-87
2022/07/10 04:14:27;;;;;;;2.75;1.98;;;;;;;16.09;100.00;100046.81;5009871;28;20452;-78
2022/07/10 04:16:53;;;;;;;2.70;2.10;;;;;;;16.13;100.00;100048.19;5028337;28;20033;-78
2022/07/10 04:19:18;;;;;;;4.07;1.77;;;;;;;16.16;100.00;100054.84;5028103;28;20038;-78
2022/07/10 04:21:43;;;;;;;2.10;1.80;;;;;;;16.22;100.00;100058.53;5029753;28;20121;-78
2022/07/10 04:24:09;;;;;;;2.70;2.10;;;;;;;16.20;100.00;100055.47;5028482;28;20026;-79
2022/07/10 04:26:35;;;;;;;2.67;1.77;;;;;;;16.28;100.00;100042.66;5030079;28;20037;-78
2022/07/10 04:29:00;;;;;;;2.58;2.10;;;;;;;16.35;99.60;100061.91;5014423;28;20037;-78
2022/07/10 04:31:26;;;;;;;2.63;1.70;;;;;;;16.42;97.84;100053.13;5015070;28;20115;-87
2022/07/10 04:33:51;;;;;;;3.10;2.00;;;;;;;16.50;98.02;100039.56;5029677;28;20041;-78
2022/07/10 04:36:18;;;;;;;2.25;1.70;;;;;;;16.61;96.45;100046.22;5026964;28;20053;-78
2022/07/10 04:38:43;;;;;;;2.83;1.65;;;;;;;16.69;95.65;100041.78;5030589;28;20101;-79
2022/07/10 04:41:09;;;;;;;3.03;1.90;;;;;;;16.71;95.71;100044.88;5031261;28;20061;-78
2022/07/10 04:43:34;;;;;;;1.77;1.65;;;;;;;16.71;96.12;100039.25;5030366;28;20431;-78
2022/07/10 04:46:00;;;;;;;2.83;2.00;;;;;;;16.77;95.30;100042.19;5030919;28;20041;-78
2022/07/10 04:48:26;;;;;;;3.20;1.70;;;;;;;16.78;94.21;100036.09;5030640;28;20037;-78
2022/07/10 04:50:52;;;;;;;2.00;1.73;;;;;;;16.81;95.05;100042.78;5011649;28;20092;-80
2022/07/10 04:53:17;;;;;;;2.25;1.63;;;;;;;16.75;94.46;100039.84;5024483;28;20028;-80
2022/07/10 04:55:43;;;;;;;2.20;1.80;;;;;;;16.76;94.92;100047.00;5031787;28;20038;-80
2022/07/10 04:58:08;;;;;;;3.63;2.00;;;;;;;16.75;95.41;100044.69;5031594;28;20068;-80
2022/07/10 05:00:34;;;;;;;3.50;1.63;;;;;;;16.85;94.57;100048.19;5031626;28;20505;-81
2022/07/10 05:02:59;;;;;;;2.42;1.80;;;;;;;16.87;93.52;100042.88;5031906;28;20509;-80
2022/07/10 05:05:25;;;;;;;3.08;1.90;;;;;;;16.96;93.14;100042.78;5031577;28;20384;-80
2022/07/10 05:07:50;;;;;;;1.92;1.48;;;;;;;17.10;91.20;100039.25;5031677;28;20160;-89
2022/07/10 05:10:16;;;;;;;4.38;1.83;;;;;;;17.24;89.72;100046.88;5010991;28;20040;-80
2022/07/10 05:12:41;;;;;;;3.70;1.65;;;;;;;17.42;87.97;100052.31;5032120;28;20034;-80
2022/07/10 05:15:07;;;;;;;3.45;1.90;;;;;;;17.52;87.67;100050.94;5031459;28;20029;-81
2022/07/10 05:17:33;;;;;;;2.22;1.83;;;;;;;17.79;86.13;100040.72;5013591;28;20401;-80
2022/07/10 05:19:58;;;;;;;2.03;1.73;;;;;;;17.87;86.27;100034.22;5013894;28;20099;-80
2022/07/10 05:22:24;;;;;;;2.85;1.95;;;;;;;18.03;86.58;100035.72;5031624;28;20112;-80
2022/07/10 05:24:50;;;;;;;3.08;1.92;;;;;;;18.28;84.39;100037.84;5031472;28;20500;-80
2022/07/10 05:27:20;;;;;;;2.10;1.70;;;;;;;18.49;82.67;100036.59;5031463;28;20462;-89
2022/07/10 05:29:46;;;;;;;2.72;2.03;;;;;;;18.73;79.83;100038.44;5031217;28;20029;-80
2022/07/10 05:32:12;;;;;;;2.00;1.80;;;;;;;18.73;79.88;100038.44;5013964;28;20037;-81
2022/07/10 05:34:37;;;;;;;3.28;2.08;;;;;;;18.75;80.23;100033.09;5031739;28;20456;-80
2022/07/10 05:37:04;;;;;;;3.33;1.95;;;;;;;18.69;80.16;100046.31;5030884;28;20030;-80
2022/07/10 05:39:30;;;;;;;3.70;1.95;;;;;;;18.73;79.02;100033.59;5030976;28;20047;-80
2022/07/10 05:41:57;;;;;;;2.35;2.00;;;;;;;18.71;78.79;100033.31;5012568;28;20111;-80
2022/07/10 05:44:23;;;;;;;3.80;2.13;;;;;;;18.69;79.31;100035.06;5013736;28;20044;-80
2022/07/10 05:46:49;;;;;;;2.70;2.15;;;;;;;18.63;79.15;100041.41;5031075;28;20037;-88
2022/07/10 05:49:14;;;;;;;3.05;2.00;;;;;;;18.61;80.24;100043.94;5013098;28;20029;-80
2022/07/10 05:51:40;;;;;;;3.55;2.08;;;;;;;18.67;80.79;100034.81;5030747;28;20021;-80
2022/07/10 05:54:05;;;;;;;2.17;1.90;;;;;;;18.79;81.25;100042.09;5030429;28;20083;-80
2022/07/10 05:56:31;;;;;;;3.05;2.25;;;;;;;18.93;80.84;100027.16;5031033;28;20033;-80
2022/07/10 05:58:57;;;;;;;4.22;2.25;;;;;;;18.83;81.74;100034.22;5013104;28;20458;-80
2022/07/10 06:01:23;;;;;;;3.50;2.20;;;;;;;18.83;81.13;100037.03;5030066;28;20041;-80
2022/07/10 06:03:49;;;;;;;3.65;2.28;;;;;;;18.68;82.40;100034.31;5020432;28;20403;-80
2022/07/10 06:06:17;;;;;;;4.53;2.30;;;;;;;18.69;82.26;100033.03;5021243;28;20049;-80
2022/07/10 06:08:44;;;;;;;2.70;2.22;;;;;;;18.71;82.88;100030.53;5020870;28;20487;-80
2022/07/10 06:11:10;;;;;;;3.20;2.20;;;;;;;18.76;82.34;100034.66;5022231;28;20029;-80
2022/07/10 06:13:36;;;;;;;3.55;2.20;;;;;;;18.73;82.46;100030.00;5020962;28;20033;-80
2022/07/10 06:16:03;;;;;;;3.70;2.30;;;;;;;18.77;83.10;100034.16;5022898;28;20064;-80
2022/07/10 06:18:29;;;;;;;3.72;2.47;;;;;;;18.77;81.53;100030.56;5004404;28;20040;-80
2022/07/10 06:20:54;;;;;;;4.38;2.50;;;;;;;18.75;80.41;100022.66;5022431;28;20030;-80
2022/07/10 06:23:20;;;;;;;3.42;2.40;;;;;;;18.58;80.03;100042.09;5019888;28;20036;-80
2022/07/10 06:25:46;;;;;;;3.85;2.47;;;;;;;18.59;80.46;100034.47;5022190;28;20396;-80
2022/07/10 06:28:11;;;;;;;5.18;3.80;;;;;;;18.69;80.64;100043.50;5023229;28;20135;-80
2022/07/10 06:30:37;;;;;;;5.18;2.63;;;;;;;18.52;81.10;100030.03;5021148;28;20025;-80
2022/07/10 06:33:02;;;;;;;3.03;2.45;;;;;;;18.68;80.77;100037.13;5011930;28;20030;-80
2022/07/10 06:35:28;;;;;;;2.92;2.22;;;;;;;18.86;80.80;100027.59;5030486;28;20033;-80
2022/07/10 06:37:53;;;;;;;3.50;2.47;;;;;;;18.99;79.82;100039.25;5029835;28;20069;-80
2022/07/10 06:40:20;;;;;;;3.80;2.50;;;;;;;18.91;79.47;100044.53;5030216;28;20091;-80
2022/07/10 06:42:46;;;;;;;3.42;2.47;;;;;;;18.93;79.60;100058.84;5029245;28;20036;-81
2022/07/10 06:45:12;;;;;;;3.08;2.20;;;;;;;18.88;79.54;100051.16;5011860;28;20033;-89
2022/07/10 06:47:57;;;;;;;3.75;2.30;;;;;;;18.76;80.11;100054.34;5012359;28;20034;-87
2022/07/10 06:50:24;;;;;;;4.18;2.50;;;;;;;18.78;81.25;100051.78;5030387;28;20038;-90
2022/07/10 06:52:50;;;;;;;2.88;2.50;;;;;;;18.88;80.19;100053.19;5012755;28;20037;-89
2022/07/10 06:55:15;;;;;;;2.80;2.50;;;;;;;18.86;80.04;100058.53;5012151;28;20032;-89
2022/07/10 06:57:41;;;;;;;3.70;2.55;;;;;;;18.93;80.39;100055.28;5012590;28;20049;-89
2022/07/10 07:00:09;;;;;;;2.85;2.42;;;;;;;19.08;79.70;100053.16;5011273;28;20039;-89
2022/07/10 07:02:35;;;;;;;3.40;2.25;;;;;;;19.06;80.48;100055.69;5015986;28;20096;-80
2022/07/10 07:05:00;;;;;;;2.97;2.40;;;;;;;19.07;80.59;100043.19;5012335;28;20041;-89
2022/07/10 07:07:25;;;;;;;3.35;2.30;;;;;;;19.15;79.99;100047.09;5030337;28;20040;-89
2022/07/10 07:09:52;;;;;;;3.03;2.67;;;;;;;19.30;79.92;100039.31;5028131;28;20469;-90
2022/07/10 07:12:18;;;;;;;3.33;2.45;;;;;;;19.48;77.58;100038.22;5028313;28;20441;-90
2022/07/10 07:14:44;;;;;;;3.35;2.20;;;;;;;19.53;77.46;100032.63;5029741;28;20049;-89
2022/07/10 07:17:11;;;;;;;4.65;2.33;;;;;;;19.61;76.43;100037.84;5021598;28;20061;-90
2022/07/10 07:25:08;;;;;;;3.53;2.22;;;;;;;20.11;77.59;100029.72;5029959;28;20033;-80
2022/07/10 07:27:35;;;;;;;4.53;2.40;;;;;;;20.32;76.22;100034.75;5011737;28;20057;-80
2022/07/10 07:30:06;;;;;;;4.13;2.30;;;;;;;20.55;75.24;100037.66;5011562;28;20482;-81
2022/07/10 07:32:32;;;;;;;3.97;2.50;;;;;;;20.89;74.09;100030.88;5011471;28;20032;-80
2022/07/10 07:34:58;;;;;;;2.30;2.03;;;;;;;20.96;70.97;100027.56;5005985;28;20395;-80
2022/07/10 07:37:35;;;;;;;4.95;2.53;;;;;;;21.05;69.80;100018.88;5009350;28;20112;-81
2022/07/10 07:40:00;;;;;;;3.22;2.45;;;;;;;21.37;68.97;100019.47;5011777;28;20403;-90
2022/07/10 07:42:26;;;;;;;4.28;2.47;;;;;;;21.42;67.09;100026.38;5011030;28;20033;-81
2022/07/10 07:44:51;;;;;;;3.17;2.03;;;;;;;21.16;69.04;100024.56;5029639;28;20030;-81
2022/07/10 07:47:17;;;;;;;3.08;2.20;;;;;;;21.48;66.21;100013.03;5029707;28;20030;-80
2022/07/10 07:49:42;;;;;;;2.72;2.30;;;;;;;21.94;66.10;100016.13;5006128;28;20041;-81
2022/07/10 07:52:08;;;;;;;3.22;2.13;;;;;;;22.20;64.98;100016.56;5021677;28;20104;-81
2022/07/10 07:54:33;;;;;;;3.40;2.15;;;;;;;22.44;65.29;100016.00;5022451;28;20034;-81
2022/07/10 07:56:59;;;;;;;2.50;2.30;;;;;;;22.44;63.46;100006.75;5025270;28;20075;-81
2022/07/10 07:59:24;;;;;;;2.63;1.92;;;;;;;22.75;62.54;99997.88;5025310;28;20036;-79
2022/07/10 08:01:50;;;;;;;3.70;2.10;;;;;;;22.78;63.17;100010.97;5025275;28;20037;-88
2022/07/10 08:04:15;;;;;;;2.28;1.90;;;;;;;22.67;62.13;100011.78;5024711;28;20411;-89
2022/07/10 08:06:41;;;;;;;2.30;1.98;;;;;;;22.50;62.46;100011.09;5027716;28;20075;-89
2022/07/10 08:09:06;;;;;;;3.65;2.10;;;;;;;21.84;62.16;100012.00;4998551;28;20056;-89
2022/07/10 08:11:32;;;;;;;5.32;2.22;;;;;;;21.57;63.40;100012.78;5015129;28;20060;-90
2022/07/10 08:13:57;;;;;;;3.13;2.10;;;;;;;21.34;64.57;100015.63;5032240;28;20044;-90
2022/07/10 08:16:23;;;;;;;3.55;2.00;;;;;;;21.47;65.43;100009.47;5033102;28;20037;-89
2022/07/10 08:18:50;;;;;;;2.72;1.85;;;;;;;21.66;64.14;100007.66;5032556;28;20033;-80
2022/07/10 08:21:15;;;;;;;2.42;2.03;;;;;;;21.82;62.82;100006.09;5033179;28;20120;-89
2022/07/10 08:23:41;;;;;;;2.90;1.80;;;;;;;21.98;61.95;100010.22;5032601;28;20063;-89
2022/07/10 08:26:06;;;;;;;4.35;1.98;;;;;;;21.72;60.48;100010.47;5007059;28;20094;-90
2022/07/10 08:28:32;;;;;;;2.33;1.80;;;;;;;22.19;60.13;100008.63;5032131;28;20026;-88
2022/07/10 08:30:58;;;;;;;2.80;1.90;;;;;;;22.24;59.35;100005.03;5014925;28;20033;-89
2022/07/10 08:33:23;;;;;;;3.30;1.80;;;;;;;21.89;59.97;100005.56;5032354;28;20103;-89
2022/07/10 08:35:49;;;;;;;2.08;1.83;;;;;;;22.08;60.61;100003.75;5032412;28;20458;-89
2022/07/10 08:38:14;;;;;;;1.98;1.70;;;;;;;22.29;59.37;100002.16;5014048;28;20043;-89
2022/07/10 08:40:40;;;;;;;2.42;1.90;;;;;;;22.54;57.79;100010.81;5032665;28;20025;-88
2022/07/10 08:43:05;;;;;;;2.95;1.73;;;;;;;22.15;58.36;100003.25;5031634;28;20175;-89
2022/07/10 08:45:35;;;;;;;2.50;1.90;;;;;;;22.04;61.21;100008.16;4998170;28;20034;-88
2022/07/10 08:48:03;;;;;;;2.13;1.85;;;;;;;21.70;60.54;100004.56;5032199;28;20116;-89
2022/07/10 08:50:32;;;;;;;2.65;1.90;;;;;;;21.94;60.80;100004.84;5032708;28;20026;-89
2022/07/10 08:53:07;;;;;;;2.28;2.08;;;;;;;22.05;60.72;100004.81;5014435;28;20037;-90
2022/07/10 08:55:33;;;;;;;3.08;1.90;;;;;;;22.16;61.91;100010.41;5014312;28;20034;-90
2022/07/10 08:57:59;;;;;;;2.28;1.80;;;;;;;22.29;60.93;99995.75;5031891;28;20097;-90
2022/07/10 09:00:25;;;;;;;2.65;1.98;;;;;;;22.23;61.46;99998.59;5014145;28;20533;-81
2022/07/10 09:02:50;;;;;;;4.47;1.95;;;;;;;22.17;60.50;99999.88;5027000;28;20104;-81
2022/07/10 09:05:16;;;;;;;3.13;1.92;;;;;;;22.17;61.09;99997.84;5028454;28;20081;-80
2022/07/10 09:07:43;;;;;;;4.15;2.05;;;;;;;22.20;60.45;99993.97;5028722;28;20049;-81
2022/07/10 09:10:10;;;;;;;3.03;2.10;;;;;;;22.22;59.83;99996.28;5028863;28;20049;-81
2022/07/10 09:12:59;;;;;;;2.58;1.83;;;;;;;22.25;61.20;99996.00;5026143;28;20045;-81
2022/07/10 09:15:26;;;;;;;2.55;2.10;;;;;;;22.37;60.69;99995.97;5029324;28;20832;-81
2022/07/10 09:17:57;;;;;;;3.60;2.00;;;;;;;22.22;60.85;99985.75;5029736;28;20525;-90
2022/07/10 09:20:32;;;;;;;4.53;2.15;;;;;;;22.41;59.71;99988.75;5029248;28;20547;-91
2022/07/10 09:22:59;;;;;;;2.58;2.10;;;;;;;22.11;61.19;99990.69;5030195;28;20367;-90
2022/07/10 09:25:34;;;;;;;2.40;2.00;;;;;;;22.15;61.46;99991.94;5011925;28;20099;-89
2022/07/10 09:28:05;;;;;;;5.32;2.33;;;;;;;22.27;59.82;99993.44;5026713;28;20041;-89
2022/07/10 09:30:38;;;;;;;3.38;2.25;;;;;;;22.73;57.80;99987.09;5004110;28;20041;-89
2022/07/10 09:33:23;;;;;;;;;;;;;;;23.06;57.22;99983.28;5011059;28;20466;-88
2022/07/10 09:36:07;;;;;;;3.65;2.10;;;;;;;23.39;57.23;99987.94;5023058;28;19927;-91
2022/07/10 09:38:39;;;;;;;2.85;1.88;;;;;;;23.15;54.11;99985.03;5028990;28;20343;-81
2022/07/10 09:41:14;;;;;;;2.33;1.80;;;;;;;23.93;53.77;99985.16;5016345;28;20069;-81
2022/07/10 09:43:50;;;;;;;2.70;1.80;;;;;;;23.61;54.89;99993.47;5029207;28;20241;-81
2022/07/10 09:46:17;;;;;;;4.82;1.90;;;;;;;24.09;55.23;99992.72;5029512;28;20037;-81
2022/07/10 09:48:43;;;;;;;2.60;1.88;;;;;;;24.25;50.48;99998.75;5010820;28;20121;-81
2022/07/10 09:51:10;;;;;;;2.40;1.70;;;;;;;24.77;51.47;99993.44;5028656;28;20056;-81
2022/07/10 09:53:43;;;;;;;3.10;1.92;;;;;;;24.44;50.79;99985.38;5026991;28;20091;-91
2022/07/10 09:56:12;;;;;;;2.67;1.77;;;;;;;24.20;51.97;99991.06;5010956;28;20057;-81
2022/07/10 09:58:39;;;;;;;2.22;1.73;;;;;;;23.65;52.87;99981.84;5027827;28;20122;-81
2022/07/10 10:01:06;;;;;;;2.72;1.80;;;;;;;23.97;51.44;99991.31;5010381;28;20461;-81
2022/07/10 10:03:38;;;;;;;4.53;2.17;;;;;;;23.95;50.14;99993.88;5010837;28;20573;-81
2022/07/10 10:06:16;;;;;;;4.32;2.00;;;;;;;24.18;49.02;99993.69;5023382;28;20450;-81
2022/07/10 10:08:51;;;;;;;2.55;1.80;;;;;;;23.61;50.45;100004.78;5010591;28;20044;-81
2022/07/10 10:11:20;;;;;;;2.70;2.10;;;;;;;23.04;52.69;100005.69;5005154;28;20483;-81
2022/07/10 10:13:46;;;;;;;6.05;2.78;;;;;;;23.01;53.91;99998.25;4994180;28;20112;-91
2022/07/10 10:16:12;;;;;;;5.35;1.83;;;;;;;23.18;52.32;100007.38;5011867;28;20088;-81
2022/07/10 10:20:36;;;;;;;3.45;1.90;;;;;;;23.49;52.00;99997.69;5027507;28;20041;-81
2022/07/10 10:21:26;;;;;;;3.83;2.20;;;;;;;23.22;51.63;100007.88;5009880;28;20473;-81
2022/07/10 10:23:52;;;;;;;4.60;1.95;;;;;;;23.20;52.19;100010.47;5025583;28;20522;-82
2022/07/10 10:26:18;;;;;;;3.30;2.15;;;;;;;22.93;52.11;100008.56;5004452;28;20030;-81
2022/07/10 10:28:44;;;;;;;3.00;2.17;;;;;;;22.79;53.74;100006.88;5021360;28;20137;-81
2022/07/10 10:31:10;;;;;;;2.20;2.00;;;;;;;22.82;53.98;100005.03;5020990;28;20113;-81
2022/07/10 10:33:36;;;;;;;2.30;1.90;;;;;;;22.86;54.39;99997.81;5003279;28;20041;-90
2022/07/10 10:36:02;;;;;;;3.65;2.08;;;;;;;22.79;53.46;99987.06;5018677;28;20030;-81
2022/07/10 10:38:54;;;;;;;3.00;2.00;;;;;;;22.69;54.15;100006.38;5007172;28;20049;-81
2022/07/10 10:41:38;;;;;;;2.67;2.17;;;;;;;22.70;55.52;99999.47;5022531;28;20399;-81
2022/07/10 10:44:06;;;;;;;4.25;2.10;;;;;;;23.17;54.14;99990.97;5027177;28;20056;-81
2022/07/10 10:46:32;;;;;;;3.72;2.20;;;;;;;23.22;54.54;99988.06;5028851;28;20033;-81
2022/07/10 10:49:08;;;;;;;4.47;2.33;;;;;;;23.55;52.78;99983.47;5010469;28;20049;-81
2022/07/10 10:52:02;;;;;;;2.97;2.30;;;;;;;23.56;53.87;99985.00;5025467;28;20053;-81
2022/07/10 10:54:30;;;;;;;2.75;2.20;;;;;;;24.37;52.23;99977.47;5021592;28;20414;-81
2022/07/10 10:57:15;;;;;;;3.55;1.90;;;;;;;25.05;46.36;99982.50;5008703;28;20043;-81
2022/07/10 10:59:48;;;;;;;2.03;1.65;;;;;;;24.08;47.12;99974.19;5004025;28;20049;-81
2022/07/10 11:02:26;;;;;;;;;;;;;;;23.24;49.54;99968.50;5011301;28;20040;-81
2022/07/10 11:05:18;;;;;;;2.33;1.85;;;;;;;23.07;51.94;99973.53;5032324;28;19947;-81
2022/07/10 11:07:53;;;;;;;2.58;2.05;;;;;;;23.02;51.97;99977.16;5014423;28;20045;-81
2022/07/10 11:10:40;;;;;;;4.10;2.20;;;;;;;22.95;51.30;99974.88;5028361;28;20506;-80
2022/07/10 11:13:11;;;;;;;3.20;1.70;;;;;;;22.33;53.97;99963.09;5027801;28;20045;-90
2022/07/10 11:15:41;;;;;;;5.15;2.20;;;;;;;22.59;54.55;99964.78;5026913;28;20021;-90
2022/07/10 11:18:28;;;;;;;3.33;2.30;;;;;;;22.54;54.00;99971.22;5009398;28;20043;-91
2022/07/10 11:20:54;;;;;;;3.83;2.00;;;;;;;21.95;55.75;99966.84;5009842;28;20483;-90
2022/07/10 11:23:43;;;;;;;2.67;2.03;;;;;;;22.16;56.13;99970.88;5009453;28;20083;-89
2022/07/10 11:26:35;;;;;;;3.40;2.00;;;;;;;21.74;55.24;99962.75;5010401;28;20029;-90
2022/07/10 11:29:04;;;;;;;6.97;2.20;;;;;;;21.96;55.58;99959.88;5025313;28;20040;-91
2022/07/10 11:31:34;;;;;;;3.58;2.08;;;;;;;21.97;55.77;99963.47;5032257;28;20080;-81
2022/07/10 11:33:59;;;;;;;2.17;1.90;;;;;;;22.07;56.07;99968.34;5033236;28;20033;-80
2022/07/10 11:36:28;;;;;;;2.67;2.03;;;;;;;21.93;56.10;99969.41;5015333;28;20037;-81
2022/07/10 11:39:07;;;;;;;3.38;1.90;;;;;;;21.81;57.48;99962.22;5033588;28;20577;-81